createdAt,value
2017-04-25T00:00:11.252Z,0
2017-04-25T00:01:12.481Z,0
2017-04-25T00:02:13.716Z,0
2017-04-25T00:03:14.971Z,0
2017-04-25T00:04:16.210Z,0
2017-04-25T00:05:17.455Z,0
2017-04-25T00:06:18.708Z,0
2017-04-25T00:07:19.978Z,0
2017-04-25T00:08:21.232Z,0
2017-04-25T00:09:22.509Z,0
2017-04-25T00:10:23.756Z,0
2017-04-25T00:11:25.020Z,0
2017-04-25T00:12:26.229Z,0
2017-04-25T00:13:27.500Z,0
2017-04-25T00:14:28.752Z,0
2017-04-25T00:15:29.979Z,0
2017-04-25T00:16:31.219Z,0
2017-04-25T00:17:32.472Z,0
2017-04-25T00:18:33.719Z,0
2017-04-25T00:19:34.994Z,0
2017-04-25T00:20:36.241Z,0
2017-04-25T00:21:37.580Z,0
2017-04-25T00:22:38.870Z,0
2017-04-25T00:23:40.116Z,0
2017-04-25T00:24:41.359Z,0
2017-04-25T00:25:42.594Z,0
2017-04-25T00:26:43.825Z,0
2017-04-25T00:27:45.126Z,0
2017-04-25T00:28:46.369Z,0
2017-04-25T00:29:47.599Z,0
2017-04-25T00:30:48.834Z,0
2017-04-25T00:31:50.092Z,0
2017-04-25T00:32:51.313Z,0
2017-04-25T00:33:52.575Z,0
2017-04-25T00:34:53.788Z,0
2017-04-25T00:35:55.026Z,0
2017-04-25T00:36:56.257Z,0
2017-04-25T00:37:57.508Z,0
2017-04-25T00:38:58.785Z,0
2017-04-25T00:40:00.026Z,0
2017-04-25T00:41:01.263Z,0
2017-04-25T00:42:02.554Z,0
2017-04-25T00:43:03.791Z,0
2017-04-25T00:44:05.058Z,0
2017-04-25T00:45:06.320Z,0
2017-04-25T00:46:07.562Z,0
2017-04-25T00:47:08.851Z,0
2017-04-25T00:48:10.203Z,0
2017-04-25T00:49:11.427Z,0
2017-04-25T00:50:12.698Z,0
2017-04-25T00:51:13.936Z,0
2017-04-25T00:52:15.182Z,0
2017-04-25T00:53:16.444Z,0
2017-04-25T00:54:17.695Z,0
2017-04-25T00:55:19.025Z,0
2017-04-25T00:56:20.261Z,0
2017-04-25T00:57:21.511Z,0
2017-04-25T00:58:22.740Z,0
2017-04-25T00:59:24.000Z,0
2017-04-25T01:00:25.284Z,0
2017-04-25T01:01:26.606Z,0
2017-04-25T01:02:27.878Z,0
2017-04-25T01:03:29.086Z,0
2017-04-25T01:04:30.358Z,0
2017-04-25T01:05:31.654Z,0
2017-04-25T01:06:32.865Z,0
2017-04-25T01:07:34.106Z,0
2017-04-25T01:08:35.355Z,0
2017-04-25T01:09:36.636Z,0
2017-04-25T01:10:38.030Z,0
2017-04-25T01:11:39.179Z,0
2017-04-25T01:12:40.421Z,0
2017-04-25T01:13:41.660Z,0
2017-04-25T01:14:42.943Z,0
2017-04-25T01:15:44.172Z,0
2017-04-25T01:16:45.467Z,0
2017-04-25T01:17:46.702Z,0
2017-04-25T01:18:47.943Z,0
2017-04-25T01:19:49.200Z,0
2017-04-25T01:20:50.443Z,0
2017-04-25T01:21:51.692Z,0
2017-04-25T01:22:52.917Z,0
2017-04-25T01:23:54.162Z,0
2017-04-25T01:24:55.397Z,0
2017-04-25T01:25:56.662Z,0
2017-04-25T01:26:57.882Z,0
2017-04-25T01:27:59.118Z,0
2017-04-25T01:29:00.436Z,0
2017-04-25T01:30:01.703Z,0
2017-04-25T01:31:03.015Z,0
2017-04-25T01:32:04.302Z,0
2017-04-25T01:33:05.563Z,0
2017-04-25T01:34:06.874Z,0
2017-04-25T01:35:08.314Z,0
2017-04-25T01:36:09.495Z,0
2017-04-25T01:37:10.726Z,0
2017-04-25T01:38:12.053Z,0
2017-04-25T01:39:13.317Z,0
2017-04-25T01:40:14.613Z,0
2017-04-25T01:41:15.872Z,0
2017-04-25T01:42:17.185Z,0
2017-04-25T01:43:18.434Z,0
2017-04-25T01:44:19.677Z,0
2017-04-25T01:45:21.010Z,0
2017-04-25T01:46:22.257Z,0
2017-04-25T01:47:23.510Z,0
2017-04-25T01:48:24.789Z,0
2017-04-25T01:49:26.192Z,0
2017-04-25T01:50:27.417Z,0
2017-04-25T01:51:28.741Z,0
2017-04-25T01:52:29.969Z,0
2017-04-25T01:53:31.213Z,0
2017-04-25T01:54:32.467Z,0
2017-04-25T01:55:33.765Z,0
2017-04-25T01:56:35.014Z,0
2017-04-25T01:57:36.288Z,0
2017-04-25T01:58:37.523Z,0
2017-04-25T01:59:38.780Z,0
2017-04-25T02:00:40.150Z,0
2017-04-25T02:01:41.339Z,0
2017-04-25T02:02:42.578Z,0
2017-04-25T02:03:43.866Z,0
2017-04-25T02:04:45.122Z,0
2017-04-25T02:05:46.370Z,0
2017-04-25T02:06:47.635Z,0
2017-04-25T02:07:48.884Z,0
2017-04-25T02:08:50.192Z,0
2017-04-25T02:09:51.459Z,0
2017-04-25T02:10:52.792Z,0
2017-04-25T02:11:54.025Z,0
2017-04-25T02:12:55.396Z,0
2017-04-25T02:13:56.697Z,0
2017-04-25T02:14:57.943Z,0
2017-04-25T02:15:59.187Z,0
2017-04-25T02:17:00.435Z,0
2017-04-25T02:18:01.798Z,0
2017-04-25T02:19:03.056Z,0
2017-04-25T02:20:04.302Z,0
2017-04-25T02:21:05.550Z,0
2017-04-25T02:22:06.795Z,0
2017-04-25T02:23:08.032Z,0
2017-04-25T02:24:09.269Z,0
2017-04-25T02:25:10.600Z,0
2017-04-25T02:26:11.867Z,0
2017-04-25T02:27:13.111Z,0
2017-04-25T02:28:14.348Z,0
2017-04-25T02:29:15.588Z,0
2017-04-25T02:30:16.839Z,0
2017-04-25T02:31:18.076Z,0
2017-04-25T02:32:19.303Z,0
2017-04-25T02:33:20.544Z,0
2017-04-25T02:34:21.815Z,0
2017-04-25T02:35:23.141Z,0
2017-04-25T02:36:24.401Z,0
2017-04-25T02:37:25.638Z,0
2017-04-25T02:38:27.009Z,0
2017-04-25T02:39:28.262Z,0
2017-04-25T02:40:29.493Z,0
2017-04-25T02:41:30.784Z,0
2017-04-25T02:42:32.023Z,0
2017-04-25T02:43:33.284Z,0
2017-04-25T02:44:34.615Z,0
2017-04-25T02:45:35.877Z,0
2017-04-25T02:46:37.113Z,0
2017-04-25T02:47:38.373Z,0
2017-04-25T02:48:39.618Z,0
2017-04-25T02:49:40.910Z,0
2017-04-25T02:50:42.234Z,0
2017-04-25T02:51:43.476Z,0
2017-04-25T02:52:44.726Z,0
2017-04-25T02:53:45.983Z,0
2017-04-25T02:54:47.226Z,0
2017-04-25T02:55:48.465Z,0
2017-04-25T02:56:49.712Z,0
2017-04-25T02:57:51.034Z,0
2017-04-25T02:58:52.252Z,0
2017-04-25T02:59:53.525Z,0
2017-04-25T03:00:54.758Z,0
2017-04-25T03:01:56.004Z,0
2017-04-25T03:02:57.272Z,0
2017-04-25T03:03:58.651Z,0
2017-04-25T03:04:59.904Z,0
2017-04-25T03:06:01.143Z,0
2017-04-25T03:07:02.399Z,0
2017-04-25T03:08:03.642Z,0
2017-04-25T03:09:04.877Z,0
2017-04-25T03:10:06.147Z,0
2017-04-25T03:11:07.428Z,0
2017-04-25T03:12:08.668Z,0
2017-04-25T03:13:09.900Z,0
2017-04-25T03:14:11.135Z,0
2017-04-25T03:15:12.392Z,0
2017-04-25T03:16:13.694Z,0
2017-04-25T03:17:14.886Z,0
2017-04-25T03:18:16.269Z,0
2017-04-25T03:19:17.496Z,0
2017-04-25T03:20:18.734Z,0
2017-04-25T03:21:20.057Z,0
2017-04-25T03:22:21.459Z,0
2017-04-25T03:23:22.761Z,0
2017-04-25T03:24:23.985Z,0
2017-04-25T03:25:25.270Z,0
2017-04-25T03:26:26.584Z,0
2017-04-25T03:27:27.806Z,0
2017-04-25T03:28:29.065Z,0
2017-04-25T03:29:30.314Z,0
2017-04-25T03:30:31.571Z,0
2017-04-25T03:31:32.910Z,0
2017-04-25T03:32:34.165Z,0
2017-04-25T03:33:35.443Z,0
2017-04-25T03:34:36.743Z,0
2017-04-25T03:35:37.986Z,0
2017-04-25T03:36:39.276Z,0
2017-04-25T03:37:40.508Z,0
2017-04-25T03:38:41.726Z,0
2017-04-25T03:39:43.021Z,0
2017-04-25T03:40:44.208Z,0
2017-04-25T03:41:45.437Z,0
2017-04-25T03:42:46.745Z,0
2017-04-25T03:43:47.975Z,0
2017-04-25T03:44:49.225Z,0
2017-04-25T03:45:50.505Z,0
2017-04-25T03:46:51.760Z,0
2017-04-25T03:47:53.075Z,0
2017-04-25T03:48:54.342Z,0
2017-04-25T03:49:55.587Z,0
2017-04-25T03:50:56.842Z,0
2017-04-25T03:51:58.111Z,0
2017-04-25T03:52:59.360Z,0
2017-04-25T03:54:00.638Z,0
2017-04-25T03:55:01.865Z,0
2017-04-25T03:56:03.132Z,0
2017-04-25T03:57:04.404Z,0
2017-04-25T03:58:05.624Z,0
2017-04-25T03:59:06.877Z,0
2017-04-25T04:00:08.093Z,0
2017-04-25T04:01:09.341Z,0
2017-04-25T04:02:10.573Z,0
2017-04-25T04:03:11.808Z,0
2017-04-25T04:04:13.096Z,0
2017-04-25T04:05:14.359Z,0
2017-04-25T04:06:15.589Z,0
2017-04-25T04:07:16.855Z,0
2017-04-25T04:08:18.075Z,0
2017-04-25T04:09:19.441Z,0
2017-04-25T04:10:20.792Z,0
2017-04-25T04:11:22.034Z,0
2017-04-25T04:12:23.270Z,0
2017-04-25T04:13:24.512Z,0
2017-04-25T04:14:25.740Z,0
2017-04-25T04:15:26.973Z,0
2017-04-25T04:16:28.212Z,5
2017-04-25T04:17:29.455Z,5
2017-04-25T04:18:30.688Z,5
2017-04-25T04:19:32.084Z,5
2017-04-25T04:20:33.286Z,5
2017-04-25T04:21:34.521Z,5
2017-04-25T04:22:35.757Z,5
2017-04-25T04:23:37.017Z,10
2017-04-25T04:24:38.331Z,10
2017-04-25T04:25:39.581Z,5
2017-04-25T04:26:40.824Z,5
2017-04-25T04:27:42.050Z,10
2017-04-25T04:28:43.286Z,10
2017-04-25T04:29:44.534Z,15
2017-04-25T04:30:45.869Z,15
2017-04-25T04:31:47.139Z,15
2017-04-25T04:32:48.376Z,20
2017-04-25T04:33:49.648Z,20
2017-04-25T04:34:50.891Z,20
2017-04-25T04:35:52.181Z,20
2017-04-25T04:36:53.410Z,20
2017-04-25T04:37:54.762Z,20
2017-04-25T04:38:55.985Z,20
2017-04-25T04:39:57.221Z,15
2017-04-25T04:40:58.460Z,20
2017-04-25T04:41:59.703Z,15
2017-04-25T04:43:00.953Z,15
2017-04-25T04:44:02.298Z,25
2017-04-25T04:45:03.531Z,25
2017-04-25T04:46:04.814Z,25
2017-04-25T04:47:06.041Z,25
2017-04-25T04:48:07.309Z,25
2017-04-25T04:49:08.530Z,20
2017-04-25T04:50:09.762Z,35
2017-04-25T04:51:11.109Z,40
2017-04-25T04:52:12.344Z,40
2017-04-25T04:53:13.582Z,35
2017-04-25T04:54:14.826Z,35
2017-04-25T04:55:16.057Z,30
2017-04-25T04:56:17.306Z,25
2017-04-25T04:57:18.557Z,30
2017-04-25T04:58:19.816Z,45
2017-04-25T04:59:21.045Z,65
2017-04-25T05:00:22.326Z,75
2017-04-25T05:01:23.552Z,80
2017-04-25T05:02:24.781Z,80
2017-04-25T05:03:26.022Z,75
2017-04-25T05:04:27.305Z,65
2017-04-25T05:05:28.672Z,75
2017-04-25T05:06:29.923Z,60
2017-04-25T05:07:31.206Z,75
2017-04-25T05:08:32.596Z,60
2017-04-25T05:09:33.827Z,65
2017-04-25T05:10:35.086Z,65
2017-04-25T05:11:36.335Z,65
2017-04-25T05:12:37.572Z,75
2017-04-25T05:13:38.871Z,90
2017-04-25T05:14:40.130Z,100
2017-04-25T05:15:41.520Z,100
2017-04-25T05:16:42.837Z,105
2017-04-25T05:17:44.101Z,90
2017-04-25T05:18:45.324Z,80
2017-04-25T05:19:46.561Z,70
2017-04-25T05:20:47.795Z,85
2017-04-25T05:21:49.058Z,100
2017-04-25T05:22:50.297Z,95
2017-04-25T05:23:51.543Z,95
2017-04-25T05:24:52.864Z,100
2017-04-25T05:25:54.077Z,105
2017-04-25T05:26:55.305Z,130
2017-04-25T05:27:56.547Z,115
2017-04-25T05:28:57.829Z,110
2017-04-25T05:29:59.227Z,105
2017-04-25T05:31:00.462Z,120
2017-04-25T05:32:01.700Z,125
2017-04-25T05:33:02.954Z,135
2017-04-25T05:34:04.205Z,145
2017-04-25T05:35:05.423Z,165
2017-04-25T05:36:06.724Z,165
2017-04-25T05:37:07.959Z,160
2017-04-25T05:38:09.294Z,180
2017-04-25T05:39:10.523Z,195
2017-04-25T05:40:11.802Z,240
2017-04-25T05:41:13.059Z,315
2017-04-25T05:42:14.341Z,295
2017-04-25T05:43:15.677Z,330
2017-04-25T05:44:17.036Z,425
2017-04-25T05:45:18.276Z,510
2017-04-25T05:46:19.596Z,550
2017-04-25T05:47:20.928Z,515
2017-04-25T05:48:22.182Z,555
2017-04-25T05:49:23.413Z,565
2017-04-25T05:50:24.768Z,590
2017-04-25T05:51:26.024Z,580
2017-04-25T05:52:27.298Z,590
2017-04-25T05:53:28.610Z,645
2017-04-25T05:54:29.839Z,640
2017-04-25T05:55:31.080Z,550
2017-04-25T05:56:32.318Z,530
2017-04-25T05:57:33.570Z,635
2017-04-25T05:58:34.851Z,435
2017-04-25T05:59:36.098Z,460
2017-04-25T06:00:37.376Z,520
2017-04-25T06:01:38.664Z,685
2017-04-25T06:02:39.928Z,445
2017-04-25T06:03:41.183Z,385
2017-04-25T06:04:42.427Z,320
2017-04-25T06:05:43.674Z,295
2017-04-25T06:06:44.911Z,300
2017-04-25T06:07:46.155Z,330
2017-04-25T06:08:47.392Z,375
2017-04-25T06:09:48.656Z,410
2017-04-25T06:10:49.883Z,385
2017-04-25T06:11:51.128Z,440
2017-04-25T06:12:52.424Z,580
2017-04-25T06:13:53.664Z,455
2017-04-25T06:14:54.911Z,485
2017-04-25T06:15:56.164Z,430
2017-04-25T06:16:57.395Z,425
2017-04-25T06:17:58.644Z,435
2017-04-25T06:18:59.946Z,405
2017-04-25T06:20:01.274Z,415
2017-04-25T06:21:02.534Z,390
2017-04-25T06:22:03.767Z,400
2017-04-25T06:23:05.007Z,420
2017-04-25T06:24:06.301Z,440
2017-04-25T06:25:07.514Z,465
2017-04-25T06:26:08.754Z,590
2017-04-25T06:27:10.005Z,425
2017-04-25T06:28:11.250Z,415
2017-04-25T06:29:12.495Z,420
2017-04-25T06:30:13.733Z,380
2017-04-25T06:31:14.980Z,340
2017-04-25T06:32:16.230Z,335
2017-04-25T06:33:17.680Z,405
2017-04-25T06:34:18.920Z,465
2017-04-25T06:35:20.176Z,510
2017-04-25T06:36:21.401Z,560
2017-04-25T06:37:22.771Z,495
2017-04-25T06:38:24.031Z,375
2017-04-25T06:39:25.376Z,430
2017-04-25T06:40:26.655Z,490
2017-04-25T06:41:27.873Z,1285
2017-04-25T06:42:29.150Z,595
2017-04-25T06:43:30.514Z,1080
2017-04-25T06:44:31.801Z,1100
2017-04-25T06:45:33.058Z,615
2017-04-25T06:46:34.305Z,1635
2017-04-25T06:47:35.538Z,730
2017-04-25T06:48:36.801Z,1390
2017-04-25T06:49:38.053Z,1490
2017-04-25T06:50:39.381Z,1090
2017-04-25T06:51:40.646Z,450
2017-04-25T06:52:41.951Z,1485
2017-04-25T06:53:43.158Z,1570
2017-04-25T06:54:44.491Z,1545
2017-04-25T06:55:45.748Z,1520
2017-04-25T06:56:46.987Z,1250
2017-04-25T06:57:48.264Z,1115
2017-04-25T06:58:49.502Z,1110
2017-04-25T06:59:50.750Z,905
2017-04-25T07:00:52.006Z,1380
2017-04-25T07:01:53.291Z,1480
2017-04-25T07:02:54.634Z,1685
2017-04-25T07:03:55.877Z,1705
2017-04-25T07:04:57.163Z,1660
2017-04-25T07:05:58.618Z,1675
2017-04-25T07:06:59.839Z,1740
2017-04-25T07:08:01.121Z,2010
2017-04-25T07:09:02.473Z,1935
2017-04-25T07:10:03.731Z,385
2017-04-25T07:11:04.960Z,330
2017-04-25T07:12:06.227Z,555
2017-04-25T07:13:07.486Z,500
2017-04-25T07:14:08.736Z,510
2017-04-25T07:15:09.977Z,410
2017-04-25T07:16:11.277Z,450
2017-04-25T07:17:12.512Z,415
2017-04-25T07:18:13.882Z,445
2017-04-25T07:19:15.132Z,1615
2017-04-25T07:20:16.391Z,2100
2017-04-25T07:21:17.640Z,2265
2017-04-25T07:22:18.927Z,2295
2017-04-25T07:23:20.185Z,2370
2017-04-25T07:24:21.425Z,1470
2017-04-25T07:25:22.784Z,495
2017-04-25T07:26:24.008Z,480
2017-04-25T07:27:25.268Z,550
2017-04-25T07:28:26.516Z,585
2017-04-25T07:29:27.763Z,540
2017-04-25T07:30:29.005Z,830
2017-04-25T07:31:30.294Z,890
2017-04-25T07:32:31.571Z,1050
2017-04-25T07:33:32.864Z,1165
2017-04-25T07:34:34.104Z,430
2017-04-25T07:35:35.386Z,510
2017-04-25T07:36:36.647Z,600
2017-04-25T07:37:37.885Z,620
2017-04-25T07:38:39.159Z,2155
2017-04-25T07:39:40.402Z,980
2017-04-25T07:40:41.657Z,440
2017-04-25T07:41:43.002Z,370
2017-04-25T07:42:44.263Z,365
2017-04-25T07:43:45.511Z,2305
2017-04-25T07:44:46.778Z,2470
2017-04-25T07:45:48.026Z,2585
2017-04-25T07:46:49.309Z,2585
2017-04-25T07:47:50.555Z,2490
2017-04-25T07:48:51.800Z,2530
2017-04-25T07:49:53.048Z,2440
2017-04-25T07:50:54.342Z,1535
2017-04-25T07:51:55.553Z,2485
2017-04-25T07:52:56.793Z,2530
2017-04-25T07:53:58.027Z,2585
2017-04-25T07:54:59.273Z,2485
2017-04-25T07:56:00.517Z,2375
2017-04-25T07:57:01.771Z,2460
2017-04-25T07:58:03.020Z,2525
2017-04-25T07:59:04.266Z,2420
2017-04-25T08:00:05.520Z,2415
2017-04-25T08:01:06.848Z,2445
2017-04-25T08:02:08.120Z,2440
2017-04-25T08:03:09.386Z,2655
2017-04-25T08:04:10.625Z,705
2017-04-25T08:05:11.884Z,2455
2017-04-25T08:06:13.151Z,830
2017-04-25T08:07:14.394Z,780
2017-04-25T08:08:15.651Z,2135
2017-04-25T08:09:16.900Z,2550
2017-04-25T08:10:18.176Z,700
2017-04-25T08:11:19.434Z,440
2017-04-25T08:12:20.741Z,370
2017-04-25T08:13:21.992Z,580
2017-04-25T08:14:23.296Z,2435
2017-04-25T08:15:24.497Z,390
2017-04-25T08:16:25.780Z,435
2017-04-25T08:17:27.071Z,470
2017-04-25T08:18:28.335Z,2490
2017-04-25T08:19:29.584Z,2465
2017-04-25T08:20:30.831Z,535
2017-04-25T08:21:32.082Z,495
2017-04-25T08:22:33.334Z,635
2017-04-25T08:23:34.675Z,550
2017-04-25T08:24:35.900Z,590
2017-04-25T08:25:37.234Z,655
2017-04-25T08:26:38.476Z,495
2017-04-25T08:27:39.737Z,335
2017-04-25T08:28:41.042Z,395
2017-04-25T08:29:42.294Z,350
2017-04-25T08:30:43.541Z,455
2017-04-25T08:31:44.790Z,400
2017-04-25T08:32:46.049Z,340
2017-04-25T08:33:47.308Z,305
2017-04-25T08:34:48.593Z,290
2017-04-25T08:35:49.932Z,385
2017-04-25T08:36:51.240Z,510
2017-04-25T08:37:52.477Z,2845
2017-04-25T08:38:53.718Z,2985
2017-04-25T08:39:54.975Z,800
2017-04-25T08:40:56.214Z,730
2017-04-25T08:41:57.581Z,565
2017-04-25T08:42:58.762Z,435
2017-04-25T08:44:00.016Z,455
2017-04-25T08:45:01.271Z,430
2017-04-25T08:46:02.523Z,620
2017-04-25T08:47:03.791Z,900
2017-04-25T08:48:05.031Z,2115
2017-04-25T08:49:06.298Z,970
2017-04-25T08:50:07.545Z,1105
2017-04-25T08:51:08.825Z,780
2017-04-25T08:52:10.049Z,1235
2017-04-25T08:53:11.295Z,3100
2017-04-25T08:54:12.605Z,880
2017-04-25T08:55:13.878Z,3130
2017-04-25T08:56:15.123Z,3170
2017-04-25T08:57:16.494Z,1075
2017-04-25T08:58:17.740Z,715
2017-04-25T08:59:18.970Z,770
2017-04-25T09:00:20.230Z,2820
2017-04-25T09:01:21.497Z,700
2017-04-25T09:02:22.776Z,885
2017-04-25T09:03:24.035Z,665
2017-04-25T09:04:25.318Z,730
2017-04-25T09:05:26.580Z,940
2017-04-25T09:06:27.822Z,425
2017-04-25T09:07:29.269Z,540
2017-04-25T09:08:30.520Z,1320
2017-04-25T09:09:31.764Z,510
2017-04-25T09:10:33.030Z,490
2017-04-25T09:11:34.256Z,460
2017-04-25T09:12:35.523Z,600
2017-04-25T09:13:36.756Z,3450
2017-04-25T09:14:38.016Z,3525
2017-04-25T09:15:39.266Z,2945
2017-04-25T09:16:40.503Z,1020
2017-04-25T09:17:41.755Z,1195
2017-04-25T09:18:43.044Z,885
2017-04-25T09:19:44.339Z,3180
2017-04-25T09:20:45.637Z,1760
2017-04-25T09:21:46.921Z,3010
2017-04-25T09:22:48.182Z,3265
2017-04-25T09:23:49.460Z,3895
2017-04-25T09:24:50.701Z,3785
2017-04-25T09:25:51.949Z,3475
2017-04-25T09:26:53.354Z,3015
2017-04-25T09:27:54.586Z,3505
2017-04-25T09:28:55.854Z,3035
2017-04-25T09:29:57.128Z,1650
2017-04-25T09:30:58.502Z,1460
2017-04-25T09:31:59.760Z,975
2017-04-25T09:33:01.083Z,875
2017-04-25T09:34:02.343Z,925
2017-04-25T09:35:03.607Z,1855
2017-04-25T09:36:04.874Z,795
2017-04-25T09:37:06.107Z,1680
2017-04-25T09:38:07.356Z,3780
2017-04-25T09:39:08.629Z,3930
2017-04-25T09:40:09.872Z,4065
2017-04-25T09:41:11.117Z,4160
2017-04-25T09:42:12.371Z,1305
2017-04-25T09:43:13.656Z,1780
2017-04-25T09:44:14.876Z,3575
2017-04-25T09:45:16.137Z,815
2017-04-25T09:46:17.420Z,990
2017-04-25T09:47:18.693Z,3455
2017-04-25T09:48:19.948Z,4005
2017-04-25T09:49:21.197Z,3160
2017-04-25T09:50:22.456Z,4320
2017-04-25T09:51:23.724Z,3360
2017-04-25T09:52:25.007Z,680
2017-04-25T09:53:26.254Z,815
2017-04-25T09:54:27.538Z,1135
2017-04-25T09:55:28.887Z,3925
2017-04-25T09:56:30.183Z,4005
2017-04-25T09:57:31.431Z,4010
2017-04-25T09:58:32.681Z,1825
2017-04-25T09:59:33.951Z,3985
2017-04-25T10:00:35.212Z,1095
2017-04-25T10:01:36.560Z,1710
2017-04-25T10:02:37.818Z,1945
2017-04-25T10:03:39.063Z,1005
2017-04-25T10:04:40.317Z,700
2017-04-25T10:05:41.620Z,515
2017-04-25T10:06:42.891Z,450
2017-04-25T10:07:44.149Z,350
2017-04-25T10:08:45.403Z,315
2017-04-25T10:09:46.656Z,445
2017-04-25T10:10:47.957Z,545
2017-04-25T10:11:49.320Z,525
2017-04-25T10:12:50.561Z,530
2017-04-25T10:13:51.808Z,530
2017-04-25T10:14:53.084Z,485
2017-04-25T10:15:54.332Z,640
2017-04-25T10:16:55.575Z,565
2017-04-25T10:17:56.824Z,600
2017-04-25T10:18:58.159Z,565
2017-04-25T10:19:59.404Z,530
2017-04-25T10:21:00.633Z,580
2017-04-25T10:22:01.900Z,520
2017-04-25T10:23:03.189Z,370
2017-04-25T10:24:04.428Z,255
2017-04-25T10:25:05.728Z,205
2017-04-25T10:26:06.991Z,170
2017-04-25T10:27:08.234Z,150
2017-04-25T10:28:09.528Z,195
2017-04-25T10:29:10.771Z,325
2017-04-25T10:30:12.010Z,415
2017-04-25T10:31:13.271Z,400
2017-04-25T10:32:14.547Z,650
2017-04-25T10:33:15.770Z,860
2017-04-25T10:34:17.042Z,1870
2017-04-25T10:35:18.284Z,2440
2017-04-25T10:36:19.657Z,855
2017-04-25T10:37:20.918Z,850
2017-04-25T10:38:22.157Z,770
2017-04-25T10:39:23.399Z,800
2017-04-25T10:40:24.643Z,770
2017-04-25T10:41:25.929Z,655
2017-04-25T10:42:27.203Z,745
2017-04-25T10:43:28.488Z,810
2017-04-25T10:44:29.743Z,845
2017-04-25T10:45:31.112Z,695
2017-04-25T10:46:32.364Z,715
2017-04-25T10:47:33.599Z,635
2017-04-25T10:48:34.950Z,480
2017-04-25T10:49:36.183Z,520
2017-04-25T10:50:37.417Z,400
2017-04-25T10:51:38.710Z,365
2017-04-25T10:52:39.937Z,365
2017-04-25T10:53:41.216Z,535
2017-04-25T10:54:42.528Z,450
2017-04-25T10:55:43.766Z,330
2017-04-25T10:56:45.022Z,310
2017-04-25T10:57:46.261Z,295
2017-04-25T10:58:47.513Z,345
2017-04-25T10:59:48.746Z,420
2017-04-25T11:00:49.994Z,365
2017-04-25T11:01:51.263Z,350
2017-04-25T11:02:52.513Z,350
2017-04-25T11:03:53.779Z,370
2017-04-25T11:04:55.117Z,470
2017-04-25T11:05:56.405Z,400
2017-04-25T11:06:57.751Z,370
2017-04-25T11:07:59.034Z,455
2017-04-25T11:09:00.263Z,530
2017-04-25T11:10:01.499Z,540
2017-04-25T11:11:02.749Z,665
2017-04-25T11:12:04.007Z,670
2017-04-25T11:13:05.307Z,460
2017-04-25T11:14:06.542Z,265
2017-04-25T11:15:07.792Z,170
2017-04-25T11:16:09.037Z,125
2017-04-25T11:17:10.296Z,105
2017-04-25T11:18:11.533Z,85
2017-04-25T11:19:12.937Z,80
2017-04-25T11:20:14.174Z,100
2017-04-25T11:21:15.423Z,120
2017-04-25T11:22:16.700Z,150
2017-04-25T11:23:17.929Z,155
2017-04-25T11:24:19.281Z,115
2017-04-25T11:25:20.528Z,95
2017-04-25T11:26:21.763Z,90
2017-04-25T11:27:23.129Z,135
2017-04-25T11:28:24.344Z,140
2017-04-25T11:29:25.577Z,150
2017-04-25T11:30:26.934Z,155
2017-04-25T11:31:28.184Z,200
2017-04-25T11:32:29.431Z,240
2017-04-25T11:33:30.687Z,310
2017-04-25T11:34:31.899Z,375
2017-04-25T11:35:33.196Z,425
2017-04-25T11:36:34.464Z,495
2017-04-25T11:37:35.688Z,585
2017-04-25T11:38:36.985Z,645
2017-04-25T11:39:38.222Z,690
2017-04-25T11:40:39.469Z,685
2017-04-25T11:41:40.716Z,605
2017-04-25T11:42:41.955Z,530
2017-04-25T11:43:43.206Z,410
2017-04-25T11:44:44.459Z,340
2017-04-25T11:45:45.698Z,300
2017-04-25T11:46:46.950Z,275
2017-04-25T11:47:48.198Z,275
2017-04-25T11:48:49.461Z,260
2017-04-25T11:49:50.733Z,250
2017-04-25T11:50:51.985Z,245
2017-04-25T11:51:53.298Z,250
2017-04-25T11:52:54.549Z,255
2017-04-25T11:53:55.785Z,255
2017-04-25T11:54:57.041Z,250
2017-04-25T11:55:58.292Z,250
2017-04-25T11:56:59.574Z,260
2017-04-25T11:58:00.869Z,265
2017-04-25T11:59:02.104Z,270
2017-04-25T12:00:03.321Z,290
2017-04-25T12:01:04.595Z,335
2017-04-25T12:02:05.827Z,380
2017-04-25T12:03:07.071Z,415
2017-04-25T12:04:08.307Z,455
2017-04-25T12:05:09.552Z,460
2017-04-25T12:06:10.805Z,510
2017-04-25T12:07:12.086Z,480
2017-04-25T12:08:13.370Z,410
2017-04-25T12:09:14.610Z,365
2017-04-25T12:10:15.871Z,355
2017-04-25T12:11:17.138Z,450
2017-04-25T12:12:18.435Z,535
2017-04-25T12:13:19.686Z,505
2017-04-25T12:14:20.953Z,470
2017-04-25T12:15:22.302Z,450
2017-04-25T12:16:23.625Z,375
2017-04-25T12:17:24.899Z,325
2017-04-25T12:18:26.123Z,285
2017-04-25T12:19:27.360Z,255
2017-04-25T12:20:28.593Z,245
2017-04-25T12:21:29.829Z,240
2017-04-25T12:22:31.107Z,230
2017-04-25T12:23:32.349Z,235
2017-04-25T12:24:33.595Z,250
2017-04-25T12:25:34.907Z,295
2017-04-25T12:26:36.100Z,305
2017-04-25T12:27:37.358Z,360
2017-04-25T12:28:38.595Z,340
2017-04-25T12:29:39.855Z,345
2017-04-25T12:30:41.075Z,340
2017-04-25T12:31:42.320Z,345
2017-04-25T12:32:43.563Z,340
2017-04-25T12:33:44.813Z,340
2017-04-25T12:34:46.053Z,355
2017-04-25T12:35:47.309Z,380
2017-04-25T12:36:48.616Z,405
2017-04-25T12:37:49.841Z,415
2017-04-25T12:38:51.325Z,475
2017-04-25T12:39:52.580Z,565
2017-04-25T12:40:54.004Z,505
2017-04-25T12:41:55.301Z,445
2017-04-25T12:42:56.540Z,360
2017-04-25T12:43:57.782Z,600
2017-04-25T12:44:59.085Z,580
2017-04-25T12:46:00.421Z,540
2017-04-25T12:47:01.648Z,570
2017-04-25T12:48:03.059Z,580
2017-04-25T12:49:04.287Z,565
2017-04-25T12:50:05.532Z,430
2017-04-25T12:51:06.834Z,330
2017-04-25T12:52:08.074Z,300
2017-04-25T12:53:09.348Z,275
2017-04-25T12:54:10.599Z,280
2017-04-25T12:55:11.844Z,275
2017-04-25T12:56:13.084Z,270
2017-04-25T12:57:14.441Z,260
2017-04-25T12:58:15.770Z,265
2017-04-25T12:59:17.026Z,270
2017-04-25T13:00:18.289Z,285
2017-04-25T13:01:19.547Z,360
2017-04-25T13:02:20.901Z,400
2017-04-25T13:03:22.193Z,445
2017-04-25T13:04:23.538Z,440
2017-04-25T13:05:24.848Z,450
2017-04-25T13:06:26.083Z,470
2017-04-25T13:07:27.379Z,410
2017-04-25T13:08:28.625Z,350
2017-04-25T13:09:29.889Z,335
2017-04-25T13:10:31.129Z,315
2017-04-25T13:11:32.382Z,280
2017-04-25T13:12:33.609Z,280
2017-04-25T13:13:34.976Z,310
2017-04-25T13:14:36.218Z,360
2017-04-25T13:15:37.496Z,445
2017-04-25T13:16:38.736Z,515
2017-04-25T13:17:39.978Z,430
2017-04-25T13:18:41.225Z,370
2017-04-25T13:19:42.483Z,350
2017-04-25T13:20:43.749Z,335
2017-04-25T13:21:45.026Z,290
2017-04-25T13:22:46.344Z,255
2017-04-25T13:23:47.662Z,245
2017-04-25T13:24:48.911Z,260
2017-04-25T13:25:50.177Z,295
2017-04-25T13:26:51.408Z,290
2017-04-25T13:27:52.655Z,275
2017-04-25T13:28:53.898Z,260
2017-04-25T13:29:55.185Z,245
2017-04-25T13:30:56.447Z,265
2017-04-25T13:31:57.680Z,285
2017-04-25T13:32:59.060Z,300
2017-04-25T13:34:00.328Z,350
2017-04-25T13:35:01.578Z,420
2017-04-25T13:36:02.854Z,460
2017-04-25T13:37:04.082Z,525
2017-04-25T13:38:05.337Z,530
2017-04-25T13:39:06.578Z,535
2017-04-25T13:40:07.823Z,510
2017-04-25T13:41:09.072Z,405
2017-04-25T13:42:10.373Z,350
2017-04-25T13:43:11.620Z,305
2017-04-25T13:44:12.904Z,265
2017-04-25T13:45:14.118Z,255
2017-04-25T13:46:15.429Z,270
2017-04-25T13:47:16.695Z,285
2017-04-25T13:48:17.994Z,310
2017-04-25T13:49:19.310Z,290
2017-04-25T13:50:20.548Z,245
2017-04-25T13:51:21.792Z,235
2017-04-25T13:52:23.032Z,250
2017-04-25T13:53:24.385Z,295
2017-04-25T13:54:25.538Z,340
2017-04-25T13:55:26.817Z,325
2017-04-25T13:56:28.042Z,315
2017-04-25T13:57:29.389Z,295
2017-04-25T13:58:30.658Z,285
2017-04-25T13:59:31.907Z,280
2017-04-25T14:00:33.180Z,315
2017-04-25T14:01:34.434Z,395
2017-04-25T14:02:35.678Z,365
2017-04-25T14:03:36.916Z,300
2017-04-25T14:04:38.156Z,270
2017-04-25T14:05:39.465Z,235
2017-04-25T14:06:40.715Z,220
2017-04-25T14:07:42.011Z,215
2017-04-25T14:08:43.369Z,230
2017-04-25T14:09:44.682Z,260
2017-04-25T14:10:45.896Z,305
2017-04-25T14:11:47.136Z,345
2017-04-25T14:12:48.384Z,325
2017-04-25T14:13:49.631Z,310
2017-04-25T14:14:50.888Z,330
2017-04-25T14:15:52.136Z,305
2017-04-25T14:16:53.404Z,310
2017-04-25T14:17:54.770Z,380
2017-04-25T14:18:56.008Z,345
2017-04-25T14:19:57.243Z,315